North East, Pennsylvania
Current Conditions -  °F | °C
As of 3:51 PM on Tuesday 21 Oct 2014 (Local Time) from KERI Reporting Station
Overcast Overcast  
Wind Chill: 52°   Ceiling: 1600
Heat Index: 52°   Visibility: 10mi
Dew Point: 45°   Wind: 8mph
Humidity: 77%   Direction: 330°NNW
Pressure: 29.93"   Gusts: NA
Location:  42.22°N, 79.83°W
Report Text: KERI 211951Z 33007KT 10SM OVC016 11/07 A2993 RMK AO2 SLP136 T01110072
Loading
Personal Weather Stations






























Interactive Weather Map
Tropical Storm Tracking
New forecast layout! Learn more

10-Day Weather Forecast

Advertisements
Track Severe Weather on mobile